createdAt,value
2017-03-19T00:00:15.877Z,1003.52
2017-03-19T00:01:25.821Z,1003.54
2017-03-19T00:02:35.759Z,1003.53
2017-03-19T00:03:45.708Z,1003.56
2017-03-19T00:04:55.972Z,1003.57
2017-03-19T00:06:05.927Z,1003.63
2017-03-19T00:07:16.186Z,1003.69
2017-03-19T00:08:26.459Z,1003.71
2017-03-19T00:09:36.402Z,1003.68
2017-03-19T00:10:46.695Z,1003.77
2017-03-19T00:11:56.639Z,1003.72
2017-03-19T00:13:06.271Z,1003.67
2017-03-19T00:14:16.220Z,1003.72
2017-03-19T00:15:26.163Z,1003.76
2017-03-19T00:16:36.105Z,1003.88
2017-03-19T00:17:45.735Z,1003.85
2017-03-19T00:18:55.991Z,1003.89
2017-03-19T00:20:05.939Z,1003.87
2017-03-19T00:21:15.883Z,1003.8
2017-03-19T00:22:26.143Z,1003.8
2017-03-19T00:23:36.403Z,1003.88
2017-03-19T00:24:46.663Z,1003.89
2017-03-19T00:25:56.924Z,1003.79
2017-03-19T00:27:07.181Z,1003.81
2017-03-19T00:28:17.440Z,1003.85
2017-03-19T00:29:27.099Z,1003.85
2017-03-19T00:30:37.356Z,1004.01
2017-03-19T00:31:47.610Z,1003.89
2017-03-19T00:32:57.869Z,1003.84
2017-03-19T00:34:08.133Z,1003.86
2017-03-19T00:35:18.399Z,1003.89
2017-03-19T00:36:28.339Z,1003.88
2017-03-19T00:37:37.973Z,1003.92
2017-03-19T00:38:48.231Z,1003.88
2017-03-19T00:39:58.496Z,1003.89
2017-03-19T00:41:08.760Z,1003.96
2017-03-19T00:42:18.077Z,1003.92
2017-03-19T00:43:27.705Z,1003.91
2017-03-19T00:44:37.999Z,1003.98
2017-03-19T00:45:47.631Z,1003.97
2017-03-19T00:46:57.884Z,1003.96
2017-03-19T00:48:07.826Z,1003.92
2017-03-19T00:49:17.777Z,1003.94
2017-03-19T00:50:27.724Z,1003.96
2017-03-19T00:51:37.986Z,1003.88
2017-03-19T00:52:48.236Z,1003.97
2017-03-19T00:53:58.501Z,1004.01
2017-03-19T00:55:08.133Z,1003.96
2017-03-19T00:56:18.390Z,1004.03
2017-03-19T00:57:28.653Z,1003.96
2017-03-19T00:58:38.916Z,1003.99
2017-03-19T00:59:48.550Z,1003.97
2017-03-19T01:00:58.805Z,1004.01
2017-03-19T01:02:09.058Z,1004.11
2017-03-19T01:03:18.692Z,1004.08
2017-03-19T01:04:28.638Z,1004.16
2017-03-19T01:05:38.898Z,1004.29
2017-03-19T01:06:49.154Z,1004.2
2017-03-19T01:07:59.411Z,1004.3
2017-03-19T01:09:09.673Z,1004.18
2017-03-19T01:10:19.942Z,1004.2
2017-03-19T01:11:29.886Z,1004.22
2017-03-19T01:12:40.151Z,1004.23
2017-03-19T01:13:50.414Z,1004.25
2017-03-19T01:15:00.049Z,1004.29
2017-03-19T01:16:09.997Z,1004.26
2017-03-19T01:17:20.248Z,1004.34
2017-03-19T01:18:30.542Z,1004.31
2017-03-19T01:19:40.485Z,1004.29
2017-03-19T01:20:50.433Z,1004.39
2017-03-19T01:22:00.692Z,1004.39
2017-03-19T01:23:10.638Z,1004.3
2017-03-19T01:24:20.896Z,1004.34
2017-03-19T01:25:30.842Z,1004.36
2017-03-19T01:26:41.095Z,1004.36
2017-03-19T01:27:50.725Z,1004.36
2017-03-19T01:29:00.666Z,1004.37
2017-03-19T01:30:10.924Z,1004.32
2017-03-19T01:31:20.238Z,1004.35
2017-03-19T01:32:30.188Z,1004.4
2017-03-19T01:33:40.490Z,1004.43
2017-03-19T01:34:50.128Z,1004.41
2017-03-19T01:36:00.392Z,1004.44
2017-03-19T01:37:10.337Z,1004.44
2017-03-19T01:38:19.977Z,1004.5
2017-03-19T01:39:30.237Z,1004.58
2017-03-19T01:40:40.496Z,1004.53
2017-03-19T01:41:50.129Z,1004.51
2017-03-19T01:42:59.758Z,1004.44
2017-03-19T01:44:09.400Z,1004.46
2017-03-19T01:45:19.033Z,1004.51
2017-03-19T01:46:29.317Z,1004.52
2017-03-19T01:47:39.575Z,1004.54
2017-03-19T01:48:49.842Z,1004.56
2017-03-19T01:50:00.106Z,1004.55
2017-03-19T01:51:10.046Z,1004.57
2017-03-19T01:52:19.987Z,1004.54
2017-03-19T01:53:30.248Z,1004.62
2017-03-19T01:54:40.512Z,1004.59
2017-03-19T01:55:50.459Z,1004.69
2017-03-19T01:57:00.708Z,1004.65
2017-03-19T01:58:10.653Z,1004.65
2017-03-19T01:59:19.973Z,1004.74
2017-03-19T02:00:29.923Z,1004.73
2017-03-19T02:01:39.873Z,1004.76
2017-03-19T02:02:50.158Z,1004.78
2017-03-19T02:04:00.430Z,1004.79
2017-03-19T02:05:10.385Z,1004.87
2017-03-19T02:06:20.647Z,1004.89
2017-03-19T02:07:30.591Z,1004.92
2017-03-19T02:08:40.853Z,1004.87
2017-03-19T02:09:50.801Z,1004.85
2017-03-19T02:11:00.130Z,1004.86
2017-03-19T02:12:10.385Z,1004.84
2017-03-19T02:13:19.700Z,1004.89
2017-03-19T02:14:29.964Z,1004.95
2017-03-19T02:15:40.218Z,1004.87
2017-03-19T02:16:50.473Z,1004.91
2017-03-19T02:18:00.729Z,1004.89
2017-03-19T02:19:10.678Z,1004.88
2017-03-19T02:20:20.935Z,1004.98
2017-03-19T02:21:31.191Z,1004.92
2017-03-19T02:22:41.140Z,1004.98
2017-03-19T02:23:51.093Z,1004.99
2017-03-19T02:25:01.355Z,1004.88
2017-03-19T02:26:11.301Z,1005.01
2017-03-19T02:27:21.244Z,1004.96
2017-03-19T02:28:31.501Z,1004.94
2017-03-19T02:29:41.768Z,1004.93
2017-03-19T02:30:52.065Z,1004.97
2017-03-19T02:32:02.011Z,1004.95
2017-03-19T02:33:11.960Z,1004.97
2017-03-19T02:34:22.221Z,1004.98
2017-03-19T02:35:32.163Z,1005
2017-03-19T02:36:42.419Z,1004.99
2017-03-19T02:37:51.741Z,1004.98
2017-03-19T02:39:02.001Z,1005.01
2017-03-19T02:40:12.257Z,1004.96
2017-03-19T02:41:22.519Z,1004.99
2017-03-19T02:42:32.467Z,1005.01
2017-03-19T02:43:42.417Z,1005.06
2017-03-19T02:44:52.365Z,1005.03
2017-03-19T02:46:02.633Z,1005.1
2017-03-19T02:47:12.571Z,1005.13
2017-03-19T02:48:22.511Z,1005.12
2017-03-19T02:49:32.776Z,1005.11
2017-03-19T02:50:43.031Z,1005.18
2017-03-19T02:51:53.288Z,1005.17
2017-03-19T02:53:03.545Z,1005.19
2017-03-19T02:54:13.494Z,1005.18
2017-03-19T02:55:23.758Z,1005.17
2017-03-19T02:56:33.715Z,1005.18
2017-03-19T02:57:43.665Z,1005.11
2017-03-19T02:58:53.924Z,1005.13
2017-03-19T03:00:03.905Z,1005.19
2017-03-19T03:01:14.161Z,1005.14
2017-03-19T03:02:24.108Z,1005.25
2017-03-19T03:03:34.059Z,1005.27
2017-03-19T03:04:44.317Z,1005.26
2017-03-19T03:05:54.265Z,1005.26
2017-03-19T03:07:04.531Z,1005.24
2017-03-19T03:08:14.473Z,1005.2
2017-03-19T03:09:24.740Z,1005.27
2017-03-19T03:10:35.010Z,1005.2
2017-03-19T03:11:44.947Z,1005.24
2017-03-19T03:12:54.892Z,1005.22
2017-03-19T03:14:05.149Z,1005.3
2017-03-19T03:15:15.104Z,1005.25
2017-03-19T03:16:25.048Z,1005.24
2017-03-19T03:17:34.987Z,1005.19
2017-03-19T03:18:45.253Z,1005.19
2017-03-19T03:19:55.198Z,1005.18
2017-03-19T03:21:05.462Z,1005.2
2017-03-19T03:22:15.731Z,1005.17
2017-03-19T03:23:25.680Z,1005.2
2017-03-19T03:24:35.645Z,1005.15
2017-03-19T03:25:45.278Z,1005.2
2017-03-19T03:26:55.533Z,1005.18
2017-03-19T03:28:05.480Z,1005.21
2017-03-19T03:29:15.740Z,1005.26
2017-03-19T03:30:25.377Z,1005.3
2017-03-19T03:31:35.633Z,1005.25
2017-03-19T03:32:44.946Z,1005.28
2017-03-19T03:33:55.207Z,1005.25
2017-03-19T03:35:05.465Z,1005.28
2017-03-19T03:36:15.413Z,1005.33
2017-03-19T03:37:25.039Z,1005.33
2017-03-19T03:38:35.296Z,1005.33
2017-03-19T03:39:45.243Z,1005.34
2017-03-19T03:40:54.875Z,1005.36
2017-03-19T03:42:05.131Z,1005.37
2017-03-19T03:43:14.791Z,1005.34
2017-03-19T03:44:25.053Z,1005.34
2017-03-19T03:45:35.312Z,1005.36
2017-03-19T03:46:45.566Z,1005.39
2017-03-19T03:47:55.837Z,1005.42
2017-03-19T03:49:05.785Z,1005.43
2017-03-19T03:50:16.049Z,1005.41
2017-03-19T03:51:26.303Z,1005.45
2017-03-19T03:52:36.250Z,1005.45
2017-03-19T03:53:45.884Z,1005.43
2017-03-19T03:54:56.147Z,1005.46
2017-03-19T03:56:05.775Z,1005.42
2017-03-19T03:57:16.029Z,1005.43
2017-03-19T03:58:25.664Z,1005.44
2017-03-19T03:59:35.936Z,1005.49
2017-03-19T04:00:45.878Z,1005.56
2017-03-19T04:01:56.131Z,1005.6
2017-03-19T04:03:06.070Z,1005.57
2017-03-19T04:04:16.013Z,1005.56
2017-03-19T04:05:26.299Z,1005.58
2017-03-19T04:06:36.244Z,1005.55
2017-03-19T04:07:46.501Z,1005.56
2017-03-19T04:08:56.133Z,1005.54
2017-03-19T04:10:06.394Z,1005.53
2017-03-19T04:11:16.331Z,1005.55
2017-03-19T04:12:26.274Z,1005.64
2017-03-19T04:13:36.534Z,1005.65
2017-03-19T04:14:46.484Z,1005.62
2017-03-19T04:15:56.426Z,1005.63
2017-03-19T04:17:06.680Z,1005.6
2017-03-19T04:18:16.935Z,1005.58
2017-03-19T04:19:26.574Z,1005.56
2017-03-19T04:20:36.844Z,1005.59
2017-03-19T04:21:46.786Z,1005.59
2017-03-19T04:22:56.418Z,1005.63
2017-03-19T04:24:06.699Z,1005.63
2017-03-19T04:25:16.972Z,1005.67
2017-03-19T04:26:26.602Z,1005.63
2017-03-19T04:27:36.544Z,1005.59
2017-03-19T04:28:46.806Z,1005.6
2017-03-19T04:29:56.438Z,1005.55
2017-03-19T04:31:06.405Z,1005.55
2017-03-19T04:32:16.355Z,1005.54
2017-03-19T04:33:26.054Z,1005.54
2017-03-19T04:34:35.691Z,1005.59
2017-03-19T04:35:45.635Z,1005.63
2017-03-19T04:36:55.886Z,1005.62
2017-03-19T04:38:05.827Z,1005.65
2017-03-19T04:39:16.084Z,1005.63
2017-03-19T04:40:26.028Z,1005.68
2017-03-19T04:41:36.285Z,1005.71
2017-03-19T04:42:46.221Z,1005.68
2017-03-19T04:43:55.854Z,1005.68
2017-03-19T04:45:06.115Z,1005.69
2017-03-19T04:46:16.374Z,1005.67
2017-03-19T04:47:26.313Z,1005.66
2017-03-19T04:48:36.298Z,1005.66
2017-03-19T04:49:46.246Z,1005.61
2017-03-19T04:50:56.196Z,1005.64
2017-03-19T04:52:06.453Z,1005.67
2017-03-19T04:53:16.709Z,1005.62
2017-03-19T04:54:26.344Z,1005.65
2017-03-19T04:55:36.627Z,1005.68
2017-03-19T04:56:45.936Z,1005.69
2017-03-19T04:57:56.188Z,1005.69
2017-03-19T04:59:06.456Z,1005.78
2017-03-19T05:00:16.401Z,1005.77
2017-03-19T05:01:26.656Z,1005.79
2017-03-19T05:02:36.914Z,1005.81
2017-03-19T05:03:46.553Z,1005.83
2017-03-19T05:04:56.505Z,1005.8
2017-03-19T05:06:06.131Z,1005.82
2017-03-19T05:07:16.386Z,1005.88
2017-03-19T05:08:26.657Z,1005.84
2017-03-19T05:09:36.920Z,1005.89
2017-03-19T05:10:47.180Z,1005.85
2017-03-19T05:11:57.436Z,1005.84
2017-03-19T05:13:07.382Z,1005.8
2017-03-19T05:14:17.332Z,1005.88
2017-03-19T05:15:26.657Z,1005.87
2017-03-19T05:16:36.603Z,1005.9
2017-03-19T05:17:46.541Z,1005.95
2017-03-19T05:18:56.488Z,1006.03
2017-03-19T05:20:06.768Z,1005.99
2017-03-19T05:21:17.019Z,1006.03
2017-03-19T05:22:27.282Z,1006.05
2017-03-19T05:23:37.542Z,1006.09
2017-03-19T05:24:47.802Z,1006.09
2017-03-19T05:25:58.063Z,1006.06
2017-03-19T05:27:08.318Z,1006.08
2017-03-19T05:28:17.947Z,1006.15
2017-03-19T05:29:27.585Z,1006.16
2017-03-19T05:30:37.535Z,1006.08
2017-03-19T05:31:47.161Z,1006.09
2017-03-19T05:32:57.418Z,1006.11
2017-03-19T05:34:06.738Z,1006.14
2017-03-19T05:35:16.364Z,1006.16
2017-03-19T05:36:26.306Z,1006.14
2017-03-19T05:37:36.252Z,1006.13
2017-03-19T05:38:46.517Z,1006.21
2017-03-19T05:39:56.779Z,1006.23
2017-03-19T05:41:07.035Z,1006.27
2017-03-19T05:42:16.347Z,1006.27
2017-03-19T05:43:25.666Z,1006.34
2017-03-19T05:44:35.620Z,1006.34
2017-03-19T05:45:45.876Z,1006.3
2017-03-19T05:46:56.127Z,1006.29
2017-03-19T05:48:05.754Z,1006.3
2017-03-19T05:49:15.700Z,1006.25
2017-03-19T05:50:25.338Z,1006.29
2017-03-19T05:51:34.965Z,1006.33
2017-03-19T05:52:45.260Z,1006.32
2017-03-19T05:53:55.526Z,1006.35
2017-03-19T05:55:05.472Z,1006.35
2017-03-19T05:56:15.730Z,1006.37
2017-03-19T05:57:25.674Z,1006.37
2017-03-19T05:58:35.357Z,1006.36
2017-03-19T05:59:45.628Z,1006.36
2017-03-19T06:00:55.578Z,1006.41
2017-03-19T06:02:05.846Z,1006.36
2017-03-19T06:03:15.832Z,1006.42
2017-03-19T06:04:26.158Z,1006.39
2017-03-19T06:05:36.107Z,1006.39
2017-03-19T06:06:46.050Z,1006.34
2017-03-19T06:07:55.994Z,1006.33
2017-03-19T06:09:05.627Z,1006.28
2017-03-19T06:10:15.887Z,1006.29
2017-03-19T06:11:25.831Z,1006.28
2017-03-19T06:12:35.778Z,1006.32
2017-03-19T06:13:45.726Z,1006.34
2017-03-19T06:14:55.355Z,1006.32
2017-03-19T06:16:05.609Z,1006.34
2017-03-19T06:17:15.864Z,1006.34
2017-03-19T06:18:25.808Z,1006.36
2017-03-19T06:19:35.757Z,1006.37
2017-03-19T06:20:45.390Z,1006.38
2017-03-19T06:21:55.647Z,1006.35
2017-03-19T06:23:05.905Z,1006.32
2017-03-19T06:24:15.855Z,1006.34
2017-03-19T06:25:26.154Z,1006.38
2017-03-19T06:26:36.411Z,1006.4
2017-03-19T06:27:46.355Z,1006.46
2017-03-19T06:28:55.993Z,1006.44
2017-03-19T06:30:05.942Z,1006.48
2017-03-19T06:31:15.916Z,1006.5
2017-03-19T06:32:25.865Z,1006.55
2017-03-19T06:33:35.813Z,1006.52
2017-03-19T06:34:45.451Z,1006.51
2017-03-19T06:35:55.082Z,1006.53
2017-03-19T06:37:04.715Z,1006.54
2017-03-19T06:38:14.654Z,1006.53
2017-03-19T06:39:24.592Z,1006.58
2017-03-19T06:40:34.559Z,1006.55
2017-03-19T06:41:44.813Z,1006.52
2017-03-19T06:42:54.754Z,1006.54
2017-03-19T06:44:04.391Z,1006.51
2017-03-19T06:45:14.641Z,1006.53
2017-03-19T06:46:24.895Z,1006.55
2017-03-19T06:47:34.843Z,1006.53
2017-03-19T06:48:44.797Z,1006.57
2017-03-19T06:49:54.449Z,1006.66
2017-03-19T06:51:04.398Z,1006.66
2017-03-19T06:52:14.653Z,1006.66
2017-03-19T06:53:24.604Z,1006.62
2017-03-19T06:54:34.553Z,1006.67
2017-03-19T06:55:44.806Z,1006.58
2017-03-19T06:56:55.059Z,1006.64
2017-03-19T06:58:05.322Z,1006.65
2017-03-19T06:59:15.589Z,1006.66
2017-03-19T07:00:25.533Z,1006.66
2017-03-19T07:01:35.479Z,1006.64
2017-03-19T07:02:45.418Z,1006.65
2017-03-19T07:03:55.064Z,1006.64
2017-03-19T07:05:05.321Z,1006.6
2017-03-19T07:06:15.269Z,1006.61
2017-03-19T07:07:25.215Z,1006.62
2017-03-19T07:08:35.479Z,1006.65
2017-03-19T07:09:45.433Z,1006.67
2017-03-19T07:10:55.416Z,1006.65
2017-03-19T07:12:05.047Z,1006.65
2017-03-19T07:13:14.675Z,1006.67
2017-03-19T07:14:24.623Z,1006.66
2017-03-19T07:15:34.268Z,1006.64
2017-03-19T07:16:44.213Z,1006.61
2017-03-19T07:17:53.843Z,1006.66
2017-03-19T07:19:03.794Z,1006.64
2017-03-19T07:20:13.430Z,1006.64
2017-03-19T07:21:23.370Z,1006.63
2017-03-19T07:22:32.999Z,1006.61
2017-03-19T07:23:42.353Z,1006.58
2017-03-19T07:24:53.012Z,1006.54
2017-03-19T07:26:03.002Z,1006.51
2017-03-19T07:27:13.691Z,1006.5
2017-03-19T07:28:24.054Z,1006.48
2017-03-19T07:29:34.430Z,1006.54
2017-03-19T07:30:44.497Z,1006.53
2017-03-19T07:31:54.505Z,1006.53
2017-03-19T07:33:05.215Z,1006.52
2017-03-19T07:34:15.912Z,1006.53
2017-03-19T07:35:26.085Z,1006.54
2017-03-19T07:36:36.686Z,1006.52
2017-03-19T07:37:46.569Z,1006.52
2017-03-19T07:38:56.423Z,1006.52
2017-03-19T07:40:06.940Z,1006.53
2017-03-19T07:41:17.087Z,1006.56
2017-03-19T07:42:27.178Z,1006.53
2017-03-19T07:43:37.236Z,1006.55
2017-03-19T07:44:47.023Z,1006.55
2017-03-19T07:45:57.425Z,1006.57
2017-03-19T07:47:07.184Z,1006.5
2017-03-19T07:48:17.131Z,1006.52
2017-03-19T07:49:26.762Z,1006.45
2017-03-19T07:50:36.720Z,1006.49
2017-03-19T07:51:46.345Z,1006.48
2017-03-19T07:52:56.286Z,1006.49
2017-03-19T07:54:06.553Z,1006.43
2017-03-19T07:55:15.878Z,1006.45
2017-03-19T07:56:25.188Z,1006.38
2017-03-19T07:57:34.820Z,1006.4
2017-03-19T07:58:44.475Z,1006.36
2017-03-19T07:59:54.736Z,1006.34
2017-03-19T08:01:05.027Z,1006.35
2017-03-19T08:02:14.977Z,1006.32
2017-03-19T08:03:24.919Z,1006.32
2017-03-19T08:04:34.866Z,1006.31
2017-03-19T08:05:44.819Z,1006.32
2017-03-19T08:06:54.766Z,1006.29
2017-03-19T08:08:04.730Z,1006.27
2017-03-19T08:09:14.994Z,1006.21
2017-03-19T08:10:25.253Z,1006.21
2017-03-19T08:11:35.517Z,1006.21
2017-03-19T08:12:45.459Z,1006.23
2017-03-19T08:13:55.416Z,1006.18
2017-03-19T08:15:05.676Z,1006.16
2017-03-19T08:16:15.623Z,1006.11
2017-03-19T08:17:25.566Z,1006.05
2017-03-19T08:18:35.825Z,1006.03
2017-03-19T08:19:45.778Z,1006.02
2017-03-19T08:20:56.043Z,1006.03
2017-03-19T08:22:05.668Z,1006.02
2017-03-19T08:23:15.607Z,1005.98
2017-03-19T08:24:25.872Z,1005.94
2017-03-19T08:25:35.193Z,1005.9
2017-03-19T08:26:45.486Z,1005.88
2017-03-19T08:27:55.424Z,1005.86
2017-03-19T08:29:05.376Z,1005.9
2017-03-19T08:30:15.633Z,1005.87
2017-03-19T08:31:25.598Z,1005.82
2017-03-19T08:32:35.887Z,1005.81
2017-03-19T08:33:45.838Z,1005.73
2017-03-19T08:34:55.472Z,1005.69
2017-03-19T08:36:05.448Z,1005.68
2017-03-19T08:37:15.574Z,1005.68
2017-03-19T08:38:25.520Z,1005.66
2017-03-19T08:39:35.788Z,1005.67
2017-03-19T08:40:46.049Z,1005.6
2017-03-19T08:41:55.992Z,1005.57
2017-03-19T08:43:05.630Z,1005.6
2017-03-19T08:44:15.893Z,1005.59
2017-03-19T08:45:26.150Z,1005.6
2017-03-19T08:46:36.093Z,1005.58
2017-03-19T08:47:46.039Z,1005.56
2017-03-19T08:48:55.675Z,1005.49
2017-03-19T08:50:05.620Z,1005.47
2017-03-19T08:51:15.877Z,1005.43
2017-03-19T08:52:25.822Z,1005.48
2017-03-19T08:53:35.796Z,1005.44
2017-03-19T08:54:46.059Z,1005.51
2017-03-19T08:55:56.323Z,1005.5
2017-03-19T08:57:05.959Z,1005.5
2017-03-19T08:58:16.250Z,1005.46
2017-03-19T08:59:26.208Z,1005.37
2017-03-19T09:00:36.475Z,1005.38
2017-03-19T09:01:46.420Z,1005.41
2017-03-19T09:02:56.673Z,1005.44
2017-03-19T09:04:06.933Z,1005.41
2017-03-19T09:05:16.569Z,1005.42
2017-03-19T09:06:26.826Z,1005.44
2017-03-19T09:07:36.770Z,1005.42
2017-03-19T09:08:46.723Z,1005.4
2017-03-19T09:09:56.669Z,1005.37
2017-03-19T09:11:06.927Z,1005.37
2017-03-19T09:12:17.182Z,1005.36
2017-03-19T09:13:26.809Z,1005.36
2017-03-19T09:14:36.438Z,1005.35
2017-03-19T09:15:46.076Z,1005.37
2017-03-19T09:16:56.342Z,1005.35
2017-03-19T09:18:06.599Z,1005.33
2017-03-19T09:19:16.231Z,1005.32
2017-03-19T09:20:25.865Z,1005.33
2017-03-19T09:21:36.156Z,1005.28
2017-03-19T09:22:46.096Z,1005.27
2017-03-19T09:23:56.355Z,1005.3
2017-03-19T09:25:06.613Z,1005.3
2017-03-19T09:26:16.879Z,1005.3
2017-03-19T09:27:26.818Z,1005.3
2017-03-19T09:28:36.141Z,1005.27
2017-03-19T09:29:46.402Z,1005.26
2017-03-19T09:30:56.363Z,1005.22
2017-03-19T09:32:06.617Z,1005.2
2017-03-19T09:33:16.570Z,1005.21
2017-03-19T09:34:26.833Z,1005.19
2017-03-19T09:35:36.173Z,1005.16
2017-03-19T09:36:46.120Z,1005.15
2017-03-19T09:37:56.069Z,1005.11
2017-03-19T09:39:06.336Z,1005.13
2017-03-19T09:40:16.601Z,1005.08
2017-03-19T09:41:26.231Z,1005.11
2017-03-19T09:42:35.863Z,1005.11
2017-03-19T09:43:45.193Z,1005.02
2017-03-19T09:44:54.835Z,1005.03
2017-03-19T09:46:05.091Z,1005.03
2017-03-19T09:47:15.032Z,1005.04
2017-03-19T09:48:24.974Z,1005.03
2017-03-19T09:49:35.231Z,1004.97
2017-03-19T09:50:45.488Z,1004.93
2017-03-19T09:51:55.746Z,1005.04
2017-03-19T09:53:06.000Z,1004.9
2017-03-19T09:54:16.259Z,1004.86
2017-03-19T09:55:26.216Z,1004.88
2017-03-19T09:56:35.854Z,1004.81
2017-03-19T09:57:45.802Z,1004.79
2017-03-19T09:58:55.439Z,1004.75
2017-03-19T10:00:05.425Z,1004.76
2017-03-19T10:01:15.055Z,1004.76
2017-03-19T10:02:25.309Z,1004.75
2017-03-19T10:03:34.937Z,1004.68
2017-03-19T10:04:45.199Z,1004.66
2017-03-19T10:05:55.460Z,1004.69
2017-03-19T10:07:05.405Z,1004.64
2017-03-19T10:08:15.701Z,1004.67
2017-03-19T10:09:25.651Z,1004.67
2017-03-19T10:10:35.289Z,1004.67
2017-03-19T10:11:45.554Z,1004.73
2017-03-19T10:12:55.180Z,1004.7
2017-03-19T10:14:05.129Z,1004.73
2017-03-19T10:15:14.773Z,1004.75
2017-03-19T10:16:24.714Z,1004.73
2017-03-19T10:17:34.652Z,1004.69
2017-03-19T10:18:44.906Z,1004.7
2017-03-19T10:19:54.848Z,1004.71
2017-03-19T10:21:05.115Z,1004.7
2017-03-19T10:22:15.058Z,1004.71
2017-03-19T10:23:25.320Z,1004.67
2017-03-19T10:24:34.960Z,1004.69
2017-03-19T10:25:45.220Z,1004.64
2017-03-19T10:26:55.483Z,1004.71
2017-03-19T10:28:05.750Z,1004.72
2017-03-19T10:29:15.701Z,1004.66
2017-03-19T10:30:25.649Z,1004.67
2017-03-19T10:31:35.302Z,1004.68
2017-03-19T10:32:45.586Z,1004.7
2017-03-19T10:33:55.843Z,1004.75
2017-03-19T10:35:06.103Z,1004.68
2017-03-19T10:36:16.357Z,1004.72
2017-03-19T10:37:26.302Z,1004.68
2017-03-19T10:38:35.613Z,1004.67
2017-03-19T10:39:45.871Z,1004.62
2017-03-19T10:40:56.148Z,1004.59
2017-03-19T10:42:06.398Z,1004.56
2017-03-19T10:43:16.029Z,1004.56
2017-03-19T10:44:25.661Z,1004.54
2017-03-19T10:45:35.291Z,1004.54
2017-03-19T10:46:45.551Z,1004.49
2017-03-19T10:47:55.805Z,1004.49
2017-03-19T10:49:05.776Z,1004.46
2017-03-19T10:50:15.722Z,1004.49
2017-03-19T10:51:25.348Z,1004.49
2017-03-19T10:52:34.978Z,1004.51
2017-03-19T10:53:45.250Z,1004.44
2017-03-19T10:54:55.206Z,1004.44
2017-03-19T10:56:05.147Z,1004.36
2017-03-19T10:57:15.401Z,1004.33
2017-03-19T10:58:25.341Z,1004.3
2017-03-19T10:59:34.979Z,1004.26
2017-03-19T11:00:45.235Z,1004.3
2017-03-19T11:01:55.173Z,1004.24
2017-03-19T11:03:05.114Z,1004.31
2017-03-19T11:04:15.380Z,1004.27
2017-03-19T11:05:25.018Z,1004.29
2017-03-19T11:06:34.644Z,1004.21
2017-03-19T11:07:44.589Z,1004.12
2017-03-19T11:08:54.544Z,1004.14
2017-03-19T11:10:04.804Z,1004.11
2017-03-19T11:11:14.747Z,1004.11
2017-03-19T11:12:25.002Z,1004.1
2017-03-19T11:13:34.949Z,1004.04
2017-03-19T11:14:45.210Z,1004.02
2017-03-19T11:15:55.153Z,1004
2017-03-19T11:17:05.404Z,1003.97
2017-03-19T11:18:15.355Z,1003.94
2017-03-19T11:19:25.618Z,1003.9
2017-03-19T11:20:35.877Z,1003.93
2017-03-19T11:21:45.838Z,1003.92
2017-03-19T11:22:55.463Z,1003.86
2017-03-19T11:24:05.722Z,1003.84
2017-03-19T11:25:15.354Z,1003.82
2017-03-19T11:26:25.617Z,1003.77
2017-03-19T11:27:34.936Z,1003.75
2017-03-19T11:28:45.219Z,1003.79
2017-03-19T11:29:55.170Z,1003.73
2017-03-19T11:31:05.119Z,1003.69
2017-03-19T11:32:15.065Z,1003.63
2017-03-19T11:33:25.009Z,1003.66
2017-03-19T11:34:34.648Z,1003.6
2017-03-19T11:35:44.908Z,1003.6
2017-03-19T11:36:55.164Z,1003.56
2017-03-19T11:38:05.430Z,1003.53
2017-03-19T11:39:15.380Z,1003.49
2017-03-19T11:40:25.644Z,1003.48
2017-03-19T11:41:35.590Z,1003.44
2017-03-19T11:42:45.850Z,1003.45
2017-03-19T11:43:56.109Z,1003.43
2017-03-19T11:45:06.063Z,1003.41
2017-03-19T11:46:16.012Z,1003.42
2017-03-19T11:47:25.950Z,1003.4
2017-03-19T11:48:35.891Z,1003.42
2017-03-19T11:49:46.211Z,1003.42
2017-03-19T11:50:56.163Z,1003.33
2017-03-19T11:52:06.162Z,1003.36
2017-03-19T11:53:16.886Z,1003.33
2017-03-19T11:54:27.088Z,1003.35
2017-03-19T11:55:37.330Z,1003.3
2017-03-19T11:56:47.996Z,1003.32
2017-03-19T11:57:57.969Z,1003.27
2017-03-19T11:59:08.663Z,1003.24
2017-03-19T12:00:18.172Z,1003.21
2017-03-19T12:01:27.922Z,1003.21
2017-03-19T12:02:37.653Z,1003.2
2017-03-19T12:03:47.649Z,1003.15
2017-03-19T12:04:57.917Z,1003.12
2017-03-19T12:06:07.856Z,1003.12
2017-03-19T12:07:18.115Z,1003.12
2017-03-19T12:08:28.061Z,1003.11
2017-03-19T12:09:38.004Z,1003.06
2017-03-19T12:10:48.264Z,1003.06
2017-03-19T12:11:58.233Z,1003.06
2017-03-19T12:13:07.889Z,1003.02
2017-03-19T12:14:17.529Z,1002.96
2017-03-19T12:15:27.162Z,1002.93
2017-03-19T12:16:37.415Z,1002.94
2017-03-19T12:17:47.051Z,1002.85
2017-03-19T12:18:57.311Z,1002.83
2017-03-19T12:20:07.270Z,1002.76
2017-03-19T12:21:16.593Z,1002.72
2017-03-19T12:22:26.219Z,1002.69
2017-03-19T12:23:35.856Z,1002.7
2017-03-19T12:24:45.815Z,1002.71
2017-03-19T12:25:55.447Z,1002.63
2017-03-19T12:27:05.080Z,1002.62
2017-03-19T12:28:15.048Z,1002.58
2017-03-19T12:29:24.998Z,1002.56
2017-03-19T12:30:35.254Z,1002.49
2017-03-19T12:31:45.200Z,1002.47
2017-03-19T12:32:55.494Z,1002.43
2017-03-19T12:34:05.129Z,1002.37
2017-03-19T12:35:15.392Z,1002.36
2017-03-19T12:36:25.018Z,1002.31
2017-03-19T12:37:34.964Z,1002.27
2017-03-19T12:38:45.230Z,1002.22
2017-03-19T12:39:55.213Z,1002.2
2017-03-19T12:41:05.160Z,1002.16
2017-03-19T12:42:14.793Z,1002.09
2017-03-19T12:43:24.737Z,1002.02
2017-03-19T12:44:34.365Z,1001.94
2017-03-19T12:45:44.622Z,1001.89
2017-03-19T12:46:53.935Z,1001.87
2017-03-19T12:48:04.195Z,1001.88
2017-03-19T12:49:13.521Z,1001.86
2017-03-19T12:50:23.471Z,1001.89
2017-03-19T12:51:33.730Z,1001.96
2017-03-19T12:52:43.675Z,1001.92
2017-03-19T12:53:53.642Z,1001.88
2017-03-19T12:55:02.960Z,1001.9
2017-03-19T12:56:13.223Z,1001.87
2017-03-19T12:57:23.163Z,1001.85
2017-03-19T12:58:33.105Z,1001.85
2017-03-19T12:59:42.737Z,1001.87
2017-03-19T13:00:52.685Z,1001.78
2017-03-19T13:02:02.623Z,1001.76
2017-03-19T13:03:12.878Z,1001.77
2017-03-19T13:04:23.144Z,1001.76
2017-03-19T13:05:33.419Z,1001.8
2017-03-19T13:06:43.677Z,1001.77
2017-03-19T13:07:53.307Z,1001.73
2017-03-19T13:09:03.255Z,1001.68
2017-03-19T13:10:12.891Z,1001.7
2017-03-19T13:11:22.517Z,1001.67
2017-03-19T13:12:32.462Z,1001.69
2017-03-19T13:13:42.410Z,1001.67
2017-03-19T13:14:52.673Z,1001.7
2017-03-19T13:16:02.635Z,1001.69
2017-03-19T13:17:12.573Z,1001.66
2017-03-19T13:18:22.519Z,1001.57
2017-03-19T13:19:32.470Z,1001.54
2017-03-19T13:20:42.758Z,1001.5
2017-03-19T13:21:53.011Z,1001.52
2017-03-19T13:23:02.952Z,1001.58
2017-03-19T13:24:12.907Z,1001.62
2017-03-19T13:25:22.856Z,1001.64
2017-03-19T13:26:32.477Z,1001.58
2017-03-19T13:27:42.421Z,1001.48
2017-03-19T13:28:52.699Z,1001.46
2017-03-19T13:30:02.963Z,1001.46
2017-03-19T13:31:12.909Z,1001.51
2017-03-19T13:32:22.564Z,1001.59
2017-03-19T13:33:32.192Z,1001.72
2017-03-19T13:34:42.453Z,1001.78
2017-03-19T13:35:52.711Z,1001.79
2017-03-19T13:37:02.968Z,1001.7
2017-03-19T13:38:13.225Z,1001.6
2017-03-19T13:39:23.175Z,1001.42
2017-03-19T13:40:32.808Z,1001.32
2017-03-19T13:41:43.065Z,1001.27
2017-03-19T13:42:53.323Z,1001.29
2017-03-19T13:44:02.955Z,1001.3
2017-03-19T13:45:12.902Z,1001.4
2017-03-19T13:46:22.844Z,1001.46
2017-03-19T13:47:32.157Z,1001.46
2017-03-19T13:48:42.101Z,1001.53
2017-03-19T13:49:52.357Z,1001.49
2017-03-19T13:51:02.301Z,1001.33
2017-03-19T13:52:12.554Z,1001.31
2017-03-19T13:53:21.872Z,1001.28
2017-03-19T13:54:31.515Z,1001.22
2017-03-19T13:55:41.460Z,1001.23
2017-03-19T13:56:51.711Z,1001.2
2017-03-19T13:58:01.969Z,1001.22
2017-03-19T13:59:11.928Z,1001.26
2017-03-19T14:00:21.886Z,1001.3
2017-03-19T14:01:31.865Z,1001.29
2017-03-19T14:02:41.500Z,1001.28
2017-03-19T14:03:51.445Z,1001.25
2017-03-19T14:05:01.712Z,1001.18
2017-03-19T14:06:11.970Z,1001.2
2017-03-19T14:07:21.593Z,1001.2
2017-03-19T14:08:31.223Z,1001.1
2017-03-19T14:09:41.491Z,1001.15